TimeCDT,TemperatureF,Dew PointF,Humidity,Sea Level PressureIn,VisibilityMPH,Wind Direction,Wind SpeedMPH,Gust SpeedMPH,PrecipitationIn,Events,Conditions,WindDirDegrees,DateUTC
12:51 AM,63.0,44.1,50,29.99,10.0,South,8.1,-,N/A,,Partly Cloudy,180,2013-05-14 05:51:00
1:51 AM,62.1,44.1,52,29.98,10.0,South,4.6,-,N/A,,Partly Cloudy,180,2013-05-14 06:51:00
2:51 AM,62.1,45.0,53,29.96,10.0,SSE,8.1,-,N/A,,Scattered Clouds,160,2013-05-14 07:51:00
3:51 AM,61.0,46.0,58,29.95,10.0,South,5.8,-,N/A,,Partly Cloudy,170,2013-05-14 08:51:00
4:51 AM,60.1,46.9,62,29.94,10.0,SSE,5.8,-,N/A,,Scattered Clouds,160,2013-05-14 09:51:00
5:51 AM,59.0,48.0,67,29.92,10.0,SSE,6.9,-,N/A,,Mostly Cloudy,160,2013-05-14 10:51:00
6:51 AM,60.1,48.9,67,29.93,10.0,South,4.6,-,N/A,,Mostly Cloudy,170,2013-05-14 11:51:00
7:51 AM,66.0,51.1,59,29.91,10.0,SSW,6.9,-,N/A,,Scattered Clouds,200,2013-05-14 12:51:00
8:51 AM,71.1,53.1,53,29.90,10.0,SW,9.2,-,N/A,,Partly Cloudy,220,2013-05-14 13:51:00
9:51 AM,78.1,53.1,42,29.88,10.0,WSW,13.8,-,N/A,,Partly Cloudy,250,2013-05-14 14:51:00
10:51 AM,80.1,54.0,40,29.88,10.0,WSW,13.8,-,N/A,,Partly Cloudy,240,2013-05-14 15:51:00
11:51 AM,84.0,54.0,35,29.88,10.0,WSW,13.8,21.9,N/A,,Partly Cloudy,250,2013-05-14 16:51:00
12:51 PM,87.8,53.6,31,29.88,10.0,WSW,15.0,21.9,N/A,,Partly Cloudy,250,2013-05-14 17:51:00
1:51 PM,90.0,53.1,28,29.84,10.0,West,13.8,20.7,N/A,,Partly Cloudy,270,2013-05-14 18:51:00
2:51 PM,91.9,52.0,26,29.83,10.0,West,17.3,23.0,N/A,,Partly Cloudy,260,2013-05-14 19:51:00
3:51 PM,91.9,51.1,25,29.81,10.0,West,16.1,29.9,N/A,,Partly Cloudy,260,2013-05-14 20:51:00
4:51 PM,91.9,50.0,24,29.81,10.0,WSW,18.4,26.5,N/A,,Partly Cloudy,250,2013-05-14 21:51:00
5:51 PM,91.9,48.9,23,29.79,10.0,WSW,17.3,23.0,N/A,,Partly Cloudy,250,2013-05-14 22:51:00
6:51 PM,91.0,48.9,23,29.78,10.0,WSW,9.2,21.9,N/A,,Partly Cloudy,250,2013-05-14 23:51:00
7:51 PM,88.0,48.0,25,29.79,10.0,WSW,15.0,21.9,N/A,,Partly Cloudy,240,2013-05-15 00:51:00
8:51 PM,84.9,46.9,27,29.81,10.0,WSW,13.8,-,N/A,,Partly Cloudy,240,2013-05-15 01:51:00
9:51 PM,84.0,46.0,26,29.82,10.0,WSW,15.0,23.0,N/A,,Partly Cloudy,250,2013-05-15 02:51:00
10:51 PM,81.0,46.9,30,29.83,10.0,WSW,9.2,-,N/A,,Clear,240,2013-05-15 03:51:00
11:51 PM,79.0,46.9,32,29.84,10.0,WSW,10.4,-,N/A,,Clear,240,2013-05-15 04:51:00